Fairbanks, AK

8:54 PM AKDT on August 25, 2016 (GMT -0800)
Fairbanks International | | Change Station
Active Advisory: Special Statement

Elev 433 ft 64.80 °N, 147.88 °W | Updated 1 hour ago

Scattered Clouds
Scattered Clouds
62 °F
Feels Like 62 °F
N
5
Wind Variable Wind from SSW

Today
High -- | Low -- °F
--% Chance of Precip.
Yesterday
High -- | Low -- °F
Precip. -- in
Pressure 30.16 in
Visibility 10.0 miles
Clouds Few 2500 ft
Few 8000 ft
Scattered Clouds 12000 ft
Scattered Clouds 20000 ft
Dew Point 56 °F
Humidity 80%
Rainfall 0.07 in
Snow Depth Not available.
6:12 AM 9:32 PM
Last Quarter, 38% visible
METAR PAFA 260353Z 21004KT 10SM FEW025 FEW080 SCT120 SCT200 17/13 A3014 RMK AO2 SLP211 T01670133
Pressure 30.16 in
Visibility 10.0 miles
Clouds Few 2500 ft
Few 8000 ft
Scattered Clouds 12000 ft
Scattered Clouds 20000 ft
Dew Point 56 °F
Humidity 80%
Rainfall 0.07 in
Snow Depth Not available.
6:12 AM 9:32 PM
Last Quarter, 38% visible
METAR PAFA 260353Z 21004KT 10SM FEW025 FEW080 SCT120 SCT200 17/13 A3014 RMK AO2 SLP211 T01670133

10-Day Weather Forecast

Almanac

Astronomy

Aug. 25, 2016 Rise Set
Actual Time
Civil Twilight
Nautical Twilight
Astronomical Twilight
Moon
Length of Visible Light
Length of Day
Tomorrow will be .
, % of the Moon is Illuminated

Today's Extremes

State Highs State Lows

Community

WunderPhotos

Upload Photos

1,935,056 photos uploaded!

WunderBlog® & News

Nearby

Air Quality

  Air Quality AQ Index Pollutant
Not available.

Snow Depth

Station Depth Elevation

Earthquake Activity

City Distance Mag. Time & Date
Minimum magnitude displayed is 2.5.

Coastal Water Temperatures

Place Temperature

Stations

Nearby Weather Stations

Station Location Temp. Windchill Dew Point Humidity Wind Precip. Elev Updated Type
                   

Watches & Warnings

Special Statement
Issued: 7:02 PM AKDT Aug. 25, 2016 – National Weather Service

... Rain has ended in Fairbanks with a nice weekend to come...

The weather system that caused rain over Fairbanks today is
moving east this evening. Rain ended in Fairbanks late this
afternoon and the sun came out at 6pm. There are still scattered
showers in the area that will end about midnight.

Fog is expected to form after midnight and to linger into Friday
morning before clearing out again Friday afternoon.

Partly cloudy skies with isolated showers are expected through the
weekend with highs in the 60s and lows in the 40s.




702 PM akdt Thu Aug 25 2016

... Rain has ended in Fairbanks with a nice weekend to come...

The weather system that caused rain over Fairbanks today is
moving east this evening. Rain ended in Fairbanks late this
afternoon and the sun came out at 6pm. There are still scattered
showers in the area that will end about midnight.

Fog is expected to form after midnight and to linger into Friday
morning before clearing out again Friday afternoon.

Partly cloudy skies with isolated showers are expected through the
weekend with highs in the 60s and lows in the 40s.